sensor_id;sensor_type;location;lat;lon;timestamp;temperature;humidity
35970;DHT22;22448;51.298;6.430;2024-03-02T00:00:50;7.00;99.90
35970;DHT22;22448;51.298;6.430;2024-03-02T00:03:18;7.10;99.90
35970;DHT22;22448;51.298;6.430;2024-03-02T00:05:50;7.10;99.90
35970;DHT22;22448;51.298;6.430;2024-03-02T00:08:25;7.20;99.90
35970;DHT22;22448;51.298;6.430;2024-03-02T00:10:59;7.20;99.90
35970;DHT22;22448;51.298;6.430;2024-03-02T00:13:27;7.40;99.90
35970;DHT22;22448;51.298;6.430;2024-03-02T00:15:55;7.40;99.90
35970;DHT22;22448;51.298;6.430;2024-03-02T00:18:32;7.50;99.90
35970;DHT22;22448;51.298;6.430;2024-03-02T00:21:00;7.50;99.90
35970;DHT22;22448;51.298;6.430;2024-03-02T00:23:30;7.50;99.90
35970;DHT22;22448;51.298;6.430;2024-03-02T00:25:58;7.60;99.90
35970;DHT22;22448;51.298;6.430;2024-03-02T00:28:35;7.60;99.90
35970;DHT22;22448;51.298;6.430;2024-03-02T00:31:10;7.70;99.90
35970;DHT22;22448;51.298;6.430;2024-03-02T00:33:49;7.70;99.90
35970;DHT22;22448;51.298;6.430;2024-03-02T00:36:24;7.70;99.90
35970;DHT22;22448;51.298;6.430;2024-03-02T00:38:53;7.80;99.90
35970;DHT22;22448;51.298;6.430;2024-03-02T00:41:27;7.80;99.90
35970;DHT22;22448;51.298;6.430;2024-03-02T00:44:04;7.90;99.90
35970;DHT22;22448;51.298;6.430;2024-03-02T00:52:05;8.00;99.90
35970;DHT22;22448;51.298;6.430;2024-03-02T00:54:33;8.00;99.90
35970;DHT22;22448;51.298;6.430;2024-03-02T00:57:01;8.00;99.90
35970;DHT22;22448;51.298;6.430;2024-03-02T00:59:28;8.00;99.90
35970;DHT22;22448;51.298;6.430;2024-03-02T01:01:56;8.00;99.90
35970;DHT22;22448;51.298;6.430;2024-03-02T01:04:24;8.10;99.90
35970;DHT22;22448;51.298;6.430;2024-03-02T01:06:51;8.10;99.90
35970;DHT22;22448;51.298;6.430;2024-03-02T01:09:18;8.20;99.90
35970;DHT22;22448;51.298;6.430;2024-03-02T01:11:46;8.20;99.90
35970;DHT22;22448;51.298;6.430;2024-03-02T01:14:13;8.20;99.90
35970;DHT22;22448;51.298;6.430;2024-03-02T01:16:40;8.10;99.90
35970;DHT22;22448;51.298;6.430;2024-03-02T01:19:07;8.10;99.90
35970;DHT22;22448;51.298;6.430;2024-03-02T01:21:36;8.00;99.90
35970;DHT22;22448;51.298;6.430;2024-03-02T01:24:03;7.90;99.90
35970;DHT22;22448;51.298;6.430;2024-03-02T01:26:30;7.90;99.90
35970;DHT22;22448;51.298;6.430;2024-03-02T01:28:57;7.70;99.90
35970;DHT22;22448;51.298;6.430;2024-03-02T01:31:24;7.70;99.90
35970;DHT22;22448;51.298;6.430;2024-03-02T01:33:51;7.70;99.90
35970;DHT22;22448;51.298;6.430;2024-03-02T01:36:19;7.80;99.90
35970;DHT22;22448;51.298;6.430;2024-03-02T01:38:46;7.80;99.90
35970;DHT22;22448;51.298;6.430;2024-03-02T01:41:13;7.80;99.90
35970;DHT22;22448;51.298;6.430;2024-03-02T01:43:40;7.90;99.90
35970;DHT22;22448;51.298;6.430;2024-03-02T01:46:08;7.80;99.90
35970;DHT22;22448;51.298;6.430;2024-03-02T01:48:36;7.90;99.90
35970;DHT22;22448;51.298;6.430;2024-03-02T01:51:03;7.90;99.90
35970;DHT22;22448;51.298;6.430;2024-03-02T01:53:36;7.90;99.90
35970;DHT22;22448;51.298;6.430;2024-03-02T01:56:04;7.90;99.90
35970;DHT22;22448;51.298;6.430;2024-03-02T01:58:31;7.90;99.90
35970;DHT22;22448;51.298;6.430;2024-03-02T02:00:58;8.00;99.90
35970;DHT22;22448;51.298;6.430;2024-03-02T02:03:26;8.00;99.90
35970;DHT22;22448;51.298;6.430;2024-03-02T02:05:53;8.00;99.90
35970;DHT22;22448;51.298;6.430;2024-03-02T02:08:21;8.10;99.90
35970;DHT22;22448;51.298;6.430;2024-03-02T02:10:48;8.10;99.90
35970;DHT22;22448;51.298;6.430;2024-03-02T02:13:15;8.00;99.90
35970;DHT22;22448;51.298;6.430;2024-03-02T02:15:42;8.00;99.90
35970;DHT22;22448;51.298;6.430;2024-03-02T02:18:09;8.00;99.90
35970;DHT22;22448;51.298;6.430;2024-03-02T02:20:37;8.10;99.90
35970;DHT22;22448;51.298;6.430;2024-03-02T02:23:04;8.10;99.90
35970;DHT22;22448;51.298;6.430;2024-03-02T02:25:36;8.00;99.90
35970;DHT22;22448;51.298;6.430;2024-03-02T02:28:04;8.10;99.90
35970;DHT22;22448;51.298;6.430;2024-03-02T02:30:32;8.10;99.90
35970;DHT22;22448;51.298;6.430;2024-03-02T02:32:59;8.10;99.90
35970;DHT22;22448;51.298;6.430;2024-03-02T02:35:27;8.20;99.90
35970;DHT22;22448;51.298;6.430;2024-03-02T02:37:55;8.20;99.90
35970;DHT22;22448;51.298;6.430;2024-03-02T02:40:24;8.20;99.90
35970;DHT22;22448;51.298;6.430;2024-03-02T02:42:50;8.20;99.90
35970;DHT22;22448;51.298;6.430;2024-03-02T02:45:21;8.20;99.90
35970;DHT22;22448;51.298;6.430;2024-03-02T02:47:48;8.20;99.90
35970;DHT22;22448;51.298;6.430;2024-03-02T02:50:15;8.20;99.90
35970;DHT22;22448;51.298;6.430;2024-03-02T02:52:43;8.10;99.90
35970;DHT22;22448;51.298;6.430;2024-03-02T02:55:12;8.10;99.90
35970;DHT22;22448;51.298;6.430;2024-03-02T02:57:40;8.10;99.90
35970;DHT22;22448;51.298;6.430;2024-03-02T03:00:11;8.00;99.90
35970;DHT22;22448;51.298;6.430;2024-03-02T03:02:48;8.00;99.90
35970;DHT22;22448;51.298;6.430;2024-03-02T03:05:17;8.00;99.90
35970;DHT22;22448;51.298;6.430;2024-03-02T03:07:44;7.90;99.90
35970;DHT22;22448;51.298;6.430;2024-03-02T03:10:12;7.90;99.90
35970;DHT22;22448;51.298;6.430;2024-03-02T03:12:41;7.80;99.90
35970;DHT22;22448;51.298;6.430;2024-03-02T03:15:10;7.70;99.90
35970;DHT22;22448;51.298;6.430;2024-03-02T03:17:38;7.70;99.90
35970;DHT22;22448;51.298;6.430;2024-03-02T03:20:07;7.70;99.90
35970;DHT22;22448;51.298;6.430;2024-03-02T03:22:38;7.60;99.90
35970;DHT22;22448;51.298;6.430;2024-03-02T03:25:06;7.60;99.90
35970;DHT22;22448;51.298;6.430;2024-03-02T03:27:35;7.60;99.90
35970;DHT22;22448;51.298;6.430;2024-03-02T03:30:03;7.60;99.90
35970;DHT22;22448;51.298;6.430;2024-03-02T03:32:30;7.50;99.90
35970;DHT22;22448;51.298;6.430;2024-03-02T03:34:57;7.50;99.90
35970;DHT22;22448;51.298;6.430;2024-03-02T03:37:24;7.40;99.90
35970;DHT22;22448;51.298;6.430;2024-03-02T03:39:53;7.40;99.90
35970;DHT22;22448;51.298;6.430;2024-03-02T03:42:20;7.40;99.90
35970;DHT22;22448;51.298;6.430;2024-03-02T03:44:47;7.30;99.90
35970;DHT22;22448;51.298;6.430;2024-03-02T03:47:14;7.30;99.90
35970;DHT22;22448;51.298;6.430;2024-03-02T03:49:41;7.20;99.90
35970;DHT22;22448;51.298;6.430;2024-03-02T03:52:08;7.20;99.90
35970;DHT22;22448;51.298;6.430;2024-03-02T03:54:36;7.20;99.90
35970;DHT22;22448;51.298;6.430;2024-03-02T03:57:05;7.10;99.90
35970;DHT22;22448;51.298;6.430;2024-03-02T03:59:32;7.10;99.90
35970;DHT22;22448;51.298;6.430;2024-03-02T04:01:59;7.10;99.90
35970;DHT22;22448;51.298;6.430;2024-03-02T04:04:26;7.00;99.90
35970;DHT22;22448;51.298;6.430;2024-03-02T04:06:53;6.90;99.90
35970;DHT22;22448;51.298;6.430;2024-03-02T04:09:20;6.90;99.90
35970;DHT22;22448;51.298;6.430;2024-03-02T04:11:47;6.80;99.90
35970;DHT22;22448;51.298;6.430;2024-03-02T04:14:14;6.80;99.90
35970;DHT22;22448;51.298;6.430;2024-03-02T04:16:41;6.70;99.90
35970;DHT22;22448;51.298;6.430;2024-03-02T04:19:09;6.60;99.90
35970;DHT22;22448;51.298;6.430;2024-03-02T04:21:36;6.60;99.90
35970;DHT22;22448;51.298;6.430;2024-03-02T04:24:03;6.60;99.90
35970;DHT22;22448;51.298;6.430;2024-03-02T04:26:30;6.50;99.90
35970;DHT22;22448;51.298;6.430;2024-03-02T04:28:57;6.50;99.90
35970;DHT22;22448;51.298;6.430;2024-03-02T04:31:24;6.40;99.90
35970;DHT22;22448;51.298;6.430;2024-03-02T04:33:51;6.40;99.90
35970;DHT22;22448;51.298;6.430;2024-03-02T04:36:18;6.30;99.90
35970;DHT22;22448;51.298;6.430;2024-03-02T04:38:45;6.30;99.90
35970;DHT22;22448;51.298;6.430;2024-03-02T04:41:12;6.20;99.90
35970;DHT22;22448;51.298;6.430;2024-03-02T04:43:39;6.20;99.90
35970;DHT22;22448;51.298;6.430;2024-03-02T04:46:07;6.20;99.90
35970;DHT22;22448;51.298;6.430;2024-03-02T04:48:34;6.10;99.90
35970;DHT22;22448;51.298;6.430;2024-03-02T04:51:02;6.10;99.90
35970;DHT22;22448;51.298;6.430;2024-03-02T04:53:29;6.00;99.90
35970;DHT22;22448;51.298;6.430;2024-03-02T04:55:56;6.00;99.90
35970;DHT22;22448;51.298;6.430;2024-03-02T04:58:42;6.00;99.90
35970;DHT22;22448;51.298;6.430;2024-03-02T05:01:09;5.90;99.90
35970;DHT22;22448;51.298;6.430;2024-03-02T05:03:36;5.90;99.90
35970;DHT22;22448;51.298;6.430;2024-03-02T05:06:03;5.90;99.90
35970;DHT22;22448;51.298;6.430;2024-03-02T05:08:30;6.00;99.90
35970;DHT22;22448;51.298;6.430;2024-03-02T05:10:57;6.00;99.90
35970;DHT22;22448;51.298;6.430;2024-03-02T05:13:44;6.00;99.90
35970;DHT22;22448;51.298;6.430;2024-03-02T05:16:11;6.00;99.90
35970;DHT22;22448;51.298;6.430;2024-03-02T05:18:38;6.00;99.90
35970;DHT22;22448;51.298;6.430;2024-03-02T05:21:06;5.90;99.90
35970;DHT22;22448;51.298;6.430;2024-03-02T05:23:33;5.90;99.90
35970;DHT22;22448;51.298;6.430;2024-03-02T05:26:00;5.90;99.90
35970;DHT22;22448;51.298;6.430;2024-03-02T05:28:27;6.00;99.90
35970;DHT22;22448;51.298;6.430;2024-03-02T05:30:54;5.90;99.90
35970;DHT22;22448;51.298;6.430;2024-03-02T05:33:21;5.90;99.90
35970;DHT22;22448;51.298;6.430;2024-03-02T05:35:49;5.90;99.90
35970;DHT22;22448;51.298;6.430;2024-03-02T05:38:17;5.90;99.90
35970;DHT22;22448;51.298;6.430;2024-03-02T05:40:44;5.90;99.90
35970;DHT22;22448;51.298;6.430;2024-03-02T05:43:11;5.90;99.90
35970;DHT22;22448;51.298;6.430;2024-03-02T05:45:38;5.90;99.90
35970;DHT22;22448;51.298;6.430;2024-03-02T05:48:07;5.80;99.90
35970;DHT22;22448;51.298;6.430;2024-03-02T05:50:35;5.80;99.90
35970;DHT22;22448;51.298;6.430;2024-03-02T05:53:02;5.80;99.90
35970;DHT22;22448;51.298;6.430;2024-03-02T05:55:29;5.80;99.90
35970;DHT22;22448;51.298;6.430;2024-03-02T05:57:56;5.80;99.90
35970;DHT22;22448;51.298;6.430;2024-03-02T06:00:33;5.80;99.90
35970;DHT22;22448;51.298;6.430;2024-03-02T06:03:00;5.80;99.90
35970;DHT22;22448;51.298;6.430;2024-03-02T06:05:27;5.90;99.90
35970;DHT22;22448;51.298;6.430;2024-03-02T06:07:54;5.90;99.90
35970;DHT22;22448;51.298;6.430;2024-03-02T06:10:21;6.00;99.90
35970;DHT22;22448;51.298;6.430;2024-03-02T06:12:48;6.00;99.90
35970;DHT22;22448;51.298;6.430;2024-03-02T06:15:15;6.10;99.90
35970;DHT22;22448;51.298;6.430;2024-03-02T06:17:43;6.20;99.90
35970;DHT22;22448;51.298;6.430;2024-03-02T06:20:11;6.30;99.90
35970;DHT22;22448;51.298;6.430;2024-03-02T06:22:38;6.30;99.90
35970;DHT22;22448;51.298;6.430;2024-03-02T06:25:05;6.40;99.90
35970;DHT22;22448;51.298;6.430;2024-03-02T06:27:33;6.40;99.90
35970;DHT22;22448;51.298;6.430;2024-03-02T06:30:00;6.40;99.90
35970;DHT22;22448;51.298;6.430;2024-03-02T06:32:27;6.40;99.90
35970;DHT22;22448;51.298;6.430;2024-03-02T06:34:54;6.40;99.90
35970;DHT22;22448;51.298;6.430;2024-03-02T06:37:21;6.40;99.90
35970;DHT22;22448;51.298;6.430;2024-03-02T06:39:48;6.50;99.90
35970;DHT22;22448;51.298;6.430;2024-03-02T06:42:16;6.50;99.90
35970;DHT22;22448;51.298;6.430;2024-03-02T06:44:42;6.60;99.90
35970;DHT22;22448;51.298;6.430;2024-03-02T06:47:09;6.60;99.90
35970;DHT22;22448;51.298;6.430;2024-03-02T06:49:36;6.60;99.90
35970;DHT22;22448;51.298;6.430;2024-03-02T06:52:03;6.60;99.90
35970;DHT22;22448;51.298;6.430;2024-03-02T06:54:31;6.80;99.90
35970;DHT22;22448;51.298;6.430;2024-03-02T06:56:58;6.90;99.90
35970;DHT22;22448;51.298;6.430;2024-03-02T06:59:25;6.90;99.90
35970;DHT22;22448;51.298;6.430;2024-03-02T07:01:52;7.10;99.90
35970;DHT22;22448;51.298;6.430;2024-03-02T07:04:19;7.20;99.90
35970;DHT22;22448;51.298;6.430;2024-03-02T07:06:46;7.40;99.90
35970;DHT22;22448;51.298;6.430;2024-03-02T07:09:13;7.50;99.90
35970;DHT22;22448;51.298;6.430;2024-03-02T07:11:40;7.60;99.90
35970;DHT22;22448;51.298;6.430;2024-03-02T07:14:08;7.70;99.90
35970;DHT22;22448;51.298;6.430;2024-03-02T07:16:37;7.90;99.90
35970;DHT22;22448;51.298;6.430;2024-03-02T07:19:05;8.00;99.90
35970;DHT22;22448;51.298;6.430;2024-03-02T07:21:33;8.00;99.90
35970;DHT22;22448;51.298;6.430;2024-03-02T07:24:00;8.10;99.90
35970;DHT22;22448;51.298;6.430;2024-03-02T07:26:31;8.20;99.90
35970;DHT22;22448;51.298;6.430;2024-03-02T07:29:01;8.30;99.90
35970;DHT22;22448;51.298;6.430;2024-03-02T07:31:29;8.30;99.90
35970;DHT22;22448;51.298;6.430;2024-03-02T07:33:56;8.30;99.90
35970;DHT22;22448;51.298;6.430;2024-03-02T07:36:24;8.30;99.90
35970;DHT22;22448;51.298;6.430;2024-03-02T07:38:51;8.40;99.90
35970;DHT22;22448;51.298;6.430;2024-03-02T07:41:18;8.60;99.90
35970;DHT22;22448;51.298;6.430;2024-03-02T07:43:45;8.60;99.90
35970;DHT22;22448;51.298;6.430;2024-03-02T07:46:12;9.40;99.90
35970;DHT22;22448;51.298;6.430;2024-03-02T07:48:40;10.10;99.90
35970;DHT22;22448;51.298;6.430;2024-03-02T07:51:07;10.90;99.90
35970;DHT22;22448;51.298;6.430;2024-03-02T07:53:34;10.90;99.90
35970;DHT22;22448;51.298;6.430;2024-03-02T07:56:01;10.40;99.90
35970;DHT22;22448;51.298;6.430;2024-03-02T07:58:30;10.20;99.90
35970;DHT22;22448;51.298;6.430;2024-03-02T08:00:58;9.90;99.90
35970;DHT22;22448;51.298;6.430;2024-03-02T08:03:28;9.80;99.90
35970;DHT22;22448;51.298;6.430;2024-03-02T08:05:56;9.50;99.90
35970;DHT22;22448;51.298;6.430;2024-03-02T08:08:23;9.50;99.90
35970;DHT22;22448;51.298;6.430;2024-03-02T08:10:50;9.70;99.90
35970;DHT22;22448;51.298;6.430;2024-03-02T08:13:17;9.40;99.90
35970;DHT22;22448;51.298;6.430;2024-03-02T08:15:44;9.10;99.90
35970;DHT22;22448;51.298;6.430;2024-03-02T08:18:11;8.90;99.90
35970;DHT22;22448;51.298;6.430;2024-03-02T08:20:40;9.10;99.90
35970;DHT22;22448;51.298;6.430;2024-03-02T08:23:07;10.40;99.90
35970;DHT22;22448;51.298;6.430;2024-03-02T08:25:35;11.60;99.90
35970;DHT22;22448;51.298;6.430;2024-03-02T08:28:02;12.10;99.90
35970;DHT22;22448;51.298;6.430;2024-03-02T08:30:29;12.70;99.90
35970;DHT22;22448;51.298;6.430;2024-03-02T08:32:56;12.90;99.90
35970;DHT22;22448;51.298;6.430;2024-03-02T08:35:24;13.00;99.90
35970;DHT22;22448;51.298;6.430;2024-03-02T08:37:51;12.70;99.90
35970;DHT22;22448;51.298;6.430;2024-03-02T08:40:18;12.60;99.90
35970;DHT22;22448;51.298;6.430;2024-03-02T08:42:45;12.60;99.90
35970;DHT22;22448;51.298;6.430;2024-03-02T08:45:13;13.10;99.90
35970;DHT22;22448;51.298;6.430;2024-03-02T08:47:41;13.90;99.90
35970;DHT22;22448;51.298;6.430;2024-03-02T08:50:08;14.20;99.90
35970;DHT22;22448;51.298;6.430;2024-03-02T08:52:35;14.50;99.90
35970;DHT22;22448;51.298;6.430;2024-03-02T08:55:03;14.70;99.90
35970;DHT22;22448;51.298;6.430;2024-03-02T08:57:31;14.70;99.90
35970;DHT22;22448;51.298;6.430;2024-03-02T08:59:59;14.50;99.90
35970;DHT22;22448;51.298;6.430;2024-03-02T09:02:26;14.40;99.90
35970;DHT22;22448;51.298;6.430;2024-03-02T09:04:53;14.10;99.90
35970;DHT22;22448;51.298;6.430;2024-03-02T09:07:20;13.50;99.90
35970;DHT22;22448;51.298;6.430;2024-03-02T09:09:47;13.50;99.90
35970;DHT22;22448;51.298;6.430;2024-03-02T09:12:15;13.70;99.90
35970;DHT22;22448;51.298;6.430;2024-03-02T09:14:42;13.70;99.90
35970;DHT22;22448;51.298;6.430;2024-03-02T09:17:09;13.80;99.90
35970;DHT22;22448;51.298;6.430;2024-03-02T09:19:39;13.70;99.90
35970;DHT22;22448;51.298;6.430;2024-03-02T09:22:06;13.60;99.90
35970;DHT22;22448;51.298;6.430;2024-03-02T09:24:33;13.20;99.90
35970;DHT22;22448;51.298;6.430;2024-03-02T09:27:00;12.70;99.90
35970;DHT22;22448;51.298;6.430;2024-03-02T09:29:27;12.40;99.90
35970;DHT22;22448;51.298;6.430;2024-03-02T09:31:55;12.10;99.90
35970;DHT22;22448;51.298;6.430;2024-03-02T09:34:22;11.90;99.90
35970;DHT22;22448;51.298;6.430;2024-03-02T09:36:51;11.90;99.90
35970;DHT22;22448;51.298;6.430;2024-03-02T09:39:18;11.80;99.90
35970;DHT22;22448;51.298;6.430;2024-03-02T09:41:47;11.80;99.90
35970;DHT22;22448;51.298;6.430;2024-03-02T09:44:14;11.80;99.90
35970;DHT22;22448;51.298;6.430;2024-03-02T09:46:42;11.70;99.90
35970;DHT22;22448;51.298;6.430;2024-03-02T09:49:11;11.60;99.90
35970;DHT22;22448;51.298;6.430;2024-03-02T09:51:39;11.40;99.90
35970;DHT22;22448;51.298;6.430;2024-03-02T09:54:08;11.30;99.90
35970;DHT22;22448;51.298;6.430;2024-03-02T09:56:48;11.30;99.90
35970;DHT22;22448;51.298;6.430;2024-03-02T09:59:16;11.30;99.90
35970;DHT22;22448;51.298;6.430;2024-03-02T10:02:01;11.20;99.90
35970;DHT22;22448;51.298;6.430;2024-03-02T10:04:30;11.20;99.90
35970;DHT22;22448;51.298;6.430;2024-03-02T10:07:12;11.20;99.90
35970;DHT22;22448;51.298;6.430;2024-03-02T10:09:40;11.30;99.90
35970;DHT22;22448;51.298;6.430;2024-03-02T10:12:09;11.30;99.90
35970;DHT22;22448;51.298;6.430;2024-03-02T10:14:37;11.40;99.90
35970;DHT22;22448;51.298;6.430;2024-03-02T10:17:14;11.50;99.90
35970;DHT22;22448;51.298;6.430;2024-03-02T10:19:42;11.60;99.90
35970;DHT22;22448;51.298;6.430;2024-03-02T10:22:10;11.60;99.90
35970;DHT22;22448;51.298;6.430;2024-03-02T10:24:43;11.60;99.90
35970;DHT22;22448;51.298;6.430;2024-03-02T10:27:17;11.70;99.90
35970;DHT22;22448;51.298;6.430;2024-03-02T10:29:47;11.80;99.90
35970;DHT22;22448;51.298;6.430;2024-03-02T10:32:15;11.90;99.90
35970;DHT22;22448;51.298;6.430;2024-03-02T10:34:44;12.00;99.90
35970;DHT22;22448;51.298;6.430;2024-03-02T10:37:12;12.00;99.90
35970;DHT22;22448;51.298;6.430;2024-03-02T10:39:40;12.10;99.90
35970;DHT22;22448;51.298;6.430;2024-03-02T10:42:08;12.00;99.90
35970;DHT22;22448;51.298;6.430;2024-03-02T10:44:35;12.20;99.90
35970;DHT22;22448;51.298;6.430;2024-03-02T10:47:04;12.20;99.90
35970;DHT22;22448;51.298;6.430;2024-03-02T10:49:32;12.00;99.90
35970;DHT22;22448;51.298;6.430;2024-03-02T10:52:00;12.10;99.90
35970;DHT22;22448;51.298;6.430;2024-03-02T10:54:28;12.10;99.90
35970;DHT22;22448;51.298;6.430;2024-03-02T10:57:05;12.10;99.90
35970;DHT22;22448;51.298;6.430;2024-03-02T10:59:35;12.20;99.90
35970;DHT22;22448;51.298;6.430;2024-03-02T11:02:04;12.40;99.90
35970;DHT22;22448;51.298;6.430;2024-03-02T11:04:34;12.40;99.90
35970;DHT22;22448;51.298;6.430;2024-03-02T11:09:34;12.60;99.90
35970;DHT22;22448;51.298;6.430;2024-03-02T11:14:51;12.80;99.90
35970;DHT22;22448;51.298;6.430;2024-03-02T11:17:19;12.80;99.90
35970;DHT22;22448;51.298;6.430;2024-03-02T11:19:47;12.80;99.90
35970;DHT22;22448;51.298;6.430;2024-03-02T11:22:15;12.70;99.90
35970;DHT22;22448;51.298;6.430;2024-03-02T11:24:50;12.80;99.90
35970;DHT22;22448;51.298;6.430;2024-03-02T11:33:10;13.10;99.90
35970;DHT22;22448;51.298;6.430;2024-03-02T11:35:44;13.20;99.90
35970;DHT22;22448;51.298;6.430;2024-03-02T11:38:14;13.30;99.90
35970;DHT22;22448;51.298;6.430;2024-03-02T11:40:42;13.40;99.90
35970;DHT22;22448;51.298;6.430;2024-03-02T11:43:09;13.40;99.90
35970;DHT22;22448;51.298;6.430;2024-03-02T11:45:37;13.50;99.90
35970;DHT22;22448;51.298;6.430;2024-03-02T11:48:13;13.60;99.90
35970;DHT22;22448;51.298;6.430;2024-03-02T11:50:47;13.70;99.90
35970;DHT22;22448;51.298;6.430;2024-03-02T11:53:17;13.90;99.90
35970;DHT22;22448;51.298;6.430;2024-03-02T11:55:45;14.00;99.90
35970;DHT22;22448;51.298;6.430;2024-03-02T11:58:15;14.00;99.90
35970;DHT22;22448;51.298;6.430;2024-03-02T12:00:47;14.00;99.90
35970;DHT22;22448;51.298;6.430;2024-03-02T12:03:14;13.90;99.90
35970;DHT22;22448;51.298;6.430;2024-03-02T12:05:42;13.80;99.90
35970;DHT22;22448;51.298;6.430;2024-03-02T12:08:11;13.50;99.90
35970;DHT22;22448;51.298;6.430;2024-03-02T12:10:39;13.30;99.90
35970;DHT22;22448;51.298;6.430;2024-03-02T12:13:07;13.30;99.90
35970;DHT22;22448;51.298;6.430;2024-03-02T12:15:38;13.20;99.90
35970;DHT22;22448;51.298;6.430;2024-03-02T12:18:06;13.20;99.90
35970;DHT22;22448;51.298;6.430;2024-03-02T12:20:34;13.30;99.90
35970;DHT22;22448;51.298;6.430;2024-03-02T12:23:02;13.30;99.90
35970;DHT22;22448;51.298;6.430;2024-03-02T12:25:32;13.30;99.90
35970;DHT22;22448;51.298;6.430;2024-03-02T12:28:01;13.50;99.90
35970;DHT22;22448;51.298;6.430;2024-03-02T12:30:30;13.50;99.90
35970;DHT22;22448;51.298;6.430;2024-03-02T12:32:58;13.50;99.90
35970;DHT22;22448;51.298;6.430;2024-03-02T12:35:25;13.60;99.90
35970;DHT22;22448;51.298;6.430;2024-03-02T12:37:53;13.70;99.90
35970;DHT22;22448;51.298;6.430;2024-03-02T12:40:21;13.70;99.90
35970;DHT22;22448;51.298;6.430;2024-03-02T12:42:50;13.60;99.90
35970;DHT22;22448;51.298;6.430;2024-03-02T12:45:18;13.60;99.90
35970;DHT22;22448;51.298;6.430;2024-03-02T12:47:52;13.70;99.90
35970;DHT22;22448;51.298;6.430;2024-03-02T12:50:20;13.70;99.90
35970;DHT22;22448;51.298;6.430;2024-03-02T12:52:54;13.70;99.90
35970;DHT22;22448;51.298;6.430;2024-03-02T12:55:22;13.60;99.90
35970;DHT22;22448;51.298;6.430;2024-03-02T12:57:52;13.60;99.90
35970;DHT22;22448;51.298;6.430;2024-03-02T13:00:20;13.50;99.90
35970;DHT22;22448;51.298;6.430;2024-03-02T13:02:50;13.40;99.90
35970;DHT22;22448;51.298;6.430;2024-03-02T13:05:18;13.50;99.90
35970;DHT22;22448;51.298;6.430;2024-03-02T13:07:47;13.50;99.90
35970;DHT22;22448;51.298;6.430;2024-03-02T13:10:15;13.50;99.90
35970;DHT22;22448;51.298;6.430;2024-03-02T13:12:42;13.40;99.90
35970;DHT22;22448;51.298;6.430;2024-03-02T13:15:10;13.50;99.90
35970;DHT22;22448;51.298;6.430;2024-03-02T13:17:45;13.50;99.90
35970;DHT22;22448;51.298;6.430;2024-03-02T13:20:15;13.60;99.90
35970;DHT22;22448;51.298;6.430;2024-03-02T13:22:42;13.70;99.90
35970;DHT22;22448;51.298;6.430;2024-03-02T13:25:09;13.80;99.90
35970;DHT22;22448;51.298;6.430;2024-03-02T13:27:39;13.80;99.90
35970;DHT22;22448;51.298;6.430;2024-03-02T13:30:07;13.90;99.90
35970;DHT22;22448;51.298;6.430;2024-03-02T13:32:36;14.00;99.90
35970;DHT22;22448;51.298;6.430;2024-03-02T13:35:03;14.10;99.90
35970;DHT22;22448;51.298;6.430;2024-03-02T13:37:31;14.10;99.90
35970;DHT22;22448;51.298;6.430;2024-03-02T13:39:58;14.00;99.90
35970;DHT22;22448;51.298;6.430;2024-03-02T13:42:26;13.80;99.90
35970;DHT22;22448;51.298;6.430;2024-03-02T13:44:54;13.80;99.90
35970;DHT22;22448;51.298;6.430;2024-03-02T13:47:21;13.80;99.90
35970;DHT22;22448;51.298;6.430;2024-03-02T13:49:48;13.80;99.90
35970;DHT22;22448;51.298;6.430;2024-03-02T13:52:16;13.90;99.90
35970;DHT22;22448;51.298;6.430;2024-03-02T13:54:47;13.80;99.90
35970;DHT22;22448;51.298;6.430;2024-03-02T13:57:14;13.80;99.90
35970;DHT22;22448;51.298;6.430;2024-03-02T13:59:42;13.90;99.90
35970;DHT22;22448;51.298;6.430;2024-03-02T14:02:11;13.80;99.90
35970;DHT22;22448;51.298;6.430;2024-03-02T14:04:39;13.70;99.90
35970;DHT22;22448;51.298;6.430;2024-03-02T14:07:07;13.70;99.90
35970;DHT22;22448;51.298;6.430;2024-03-02T14:09:35;13.70;99.90
35970;DHT22;22448;51.298;6.430;2024-03-02T14:12:04;13.70;99.90
35970;DHT22;22448;51.298;6.430;2024-03-02T14:14:32;13.70;99.90
35970;DHT22;22448;51.298;6.430;2024-03-02T14:17:00;13.60;99.90
35970;DHT22;22448;51.298;6.430;2024-03-02T14:19:30;13.70;99.90
35970;DHT22;22448;51.298;6.430;2024-03-02T14:21:58;13.60;99.90
35970;DHT22;22448;51.298;6.430;2024-03-02T14:24:26;13.50;99.90
35970;DHT22;22448;51.298;6.430;2024-03-02T14:26:55;13.50;99.90
35970;DHT22;22448;51.298;6.430;2024-03-02T14:29:36;13.40;99.90
35970;DHT22;22448;51.298;6.430;2024-03-02T14:32:05;13.30;99.90
35970;DHT22;22448;51.298;6.430;2024-03-02T14:34:33;13.30;99.90
35970;DHT22;22448;51.298;6.430;2024-03-02T14:37:03;13.30;99.90
35970;DHT22;22448;51.298;6.430;2024-03-02T14:39:30;13.30;99.90
35970;DHT22;22448;51.298;6.430;2024-03-02T14:42:01;13.30;99.90
35970;DHT22;22448;51.298;6.430;2024-03-02T14:44:46;13.30;99.90
35970;DHT22;22448;51.298;6.430;2024-03-02T14:47:13;13.40;99.90
35970;DHT22;22448;51.298;6.430;2024-03-02T14:49:40;13.40;99.90
35970;DHT22;22448;51.298;6.430;2024-03-02T14:52:08;13.40;99.90
35970;DHT22;22448;51.298;6.430;2024-03-02T14:54:36;13.40;99.90
35970;DHT22;22448;51.298;6.430;2024-03-02T14:57:03;13.40;99.90
35970;DHT22;22448;51.298;6.430;2024-03-02T14:59:30;13.40;99.90
35970;DHT22;22448;51.298;6.430;2024-03-02T15:01:57;13.50;99.90
35970;DHT22;22448;51.298;6.430;2024-03-02T15:04:25;13.40;99.90
35970;DHT22;22448;51.298;6.430;2024-03-02T15:06:54;13.40;99.90
35970;DHT22;22448;51.298;6.430;2024-03-02T15:09:21;13.40;99.90
35970;DHT22;22448;51.298;6.430;2024-03-02T15:11:48;13.30;99.90
35970;DHT22;22448;51.298;6.430;2024-03-02T15:14:15;13.30;99.90
35970;DHT22;22448;51.298;6.430;2024-03-02T15:16:42;13.40;99.90
35970;DHT22;22448;51.298;6.430;2024-03-02T15:19:10;13.40;99.90
35970;DHT22;22448;51.298;6.430;2024-03-02T15:21:37;13.50;99.90
35970;DHT22;22448;51.298;6.430;2024-03-02T15:24:04;13.50;99.90
35970;DHT22;22448;51.298;6.430;2024-03-02T15:26:32;13.50;99.90
35970;DHT22;22448;51.298;6.430;2024-03-02T15:28:59;13.30;99.90
35970;DHT22;22448;51.298;6.430;2024-03-02T15:31:26;13.30;99.90
35970;DHT22;22448;51.298;6.430;2024-03-02T15:33:53;13.20;99.90
35970;DHT22;22448;51.298;6.430;2024-03-02T15:36:23;13.20;99.90
35970;DHT22;22448;51.298;6.430;2024-03-02T15:38:50;13.10;99.90
35970;DHT22;22448;51.298;6.430;2024-03-02T15:41:17;13.20;99.90
35970;DHT22;22448;51.298;6.430;2024-03-02T15:43:44;13.20;99.90
35970;DHT22;22448;51.298;6.430;2024-03-02T15:46:11;13.20;99.90
35970;DHT22;22448;51.298;6.430;2024-03-02T15:48:38;13.20;99.90
35970;DHT22;22448;51.298;6.430;2024-03-02T15:51:05;13.20;99.90
35970;DHT22;22448;51.298;6.430;2024-03-02T15:53:33;13.20;99.90
35970;DHT22;22448;51.298;6.430;2024-03-02T15:56:00;13.20;99.90
35970;DHT22;22448;51.298;6.430;2024-03-02T15:58:27;13.20;99.90
35970;DHT22;22448;51.298;6.430;2024-03-02T16:00:55;13.20;99.90